Camp Pendleton MCAS (Munn Field) Airport
KNFG : now visible

Airfield :











YOU CAN JOIN US ON...

 
LOGIN :

Register | Disclaimer

   EN    FR    IT 

 









Legend :    VFR   Marginal VFR   IFR   Intensive IFR   Very Intensive IFR
Visi :
Ceiling :
>= 8 km
>= 3000ft
5 to 8 km
1000 to 3000 ft
1500m to 5 km
500 to 1000 ft
800 to 1500m
200 to 500 ft
< 800m
< 200 ft
Symbols :   Thunderstorms  Fog  Heavy snow  Heavy precipitations  Wind > 20 kt






- Airport Elevation : 78 ft


KNFG - Camp Pendleton MCAS (Munn Field)

CURRENT METAR :
  • 261655Z 05005KT 10SM CLR 22/M08 A3029 RMK AO2 SLP256 T02171083 $

EXPIRED METARs :
  • 261555Z 00000KT 10SM CLR 17/M01 A3030 RMK AO2 SLP259 T01671011 $
  • 261455Z 00000KT 10SM CLR 08/M02 A3028 RMK AO2 SLP253 T00781017 53011 $

TAF TAF KNFG
Valid from the 26 at 15:00 until the 27 at 15:00 UTC


2615/2715 VRB05KT 9999 SKC QNH3018INS
TEMPO 2621/2701 24009KT
BECMG 2704/2706 04008KT 9999 SKC QNH3015INS T26/2621Z T07/2714Z



MET'MAP, your aeronautical weather chart ! - Copyright ORBIFLY December 2007 - Disclaimer

ORBIFLY MET'MAP TEAM :

Programming & Development : Alexandra Zaïnal
Concept & original design : Baudouin d'Aumeries
Assistance for programming : Marc-Olivier Méhu
Technical & hardware support : Manuel Goepfert

Contact : metmap@orbifly.com




SOURCES & CREDITS :

   NOAA       Earth
Advisory